createdAt,value
2022-09-03T00:00:12.293Z,16.55
2022-09-03T00:01:12.277Z,16.53
2022-09-03T00:02:12.316Z,16.52
2022-09-03T00:03:12.319Z,16.52
2022-09-03T00:04:12.257Z,16.52
2022-09-03T00:05:12.265Z,16.38
2022-09-03T00:06:12.239Z,16.41
2022-09-03T00:07:12.237Z,16.49
2022-09-03T00:08:12.209Z,16.49
2022-09-03T00:09:12.213Z,16.49
2022-09-03T00:10:12.237Z,16.63
2022-09-03T00:11:12.197Z,16.55
2022-09-03T00:12:12.198Z,16.56
2022-09-03T00:13:12.193Z,16.65
2022-09-03T00:14:12.181Z,16.59
2022-09-03T00:15:12.172Z,16.60
2022-09-03T00:16:12.230Z,16.62
2022-09-03T00:17:12.157Z,16.68
2022-09-03T00:18:12.148Z,16.52
2022-09-03T00:19:12.137Z,16.50
2022-09-03T00:20:12.139Z,16.49
2022-09-03T00:21:12.141Z,16.34
2022-09-03T00:22:12.127Z,16.35
2022-09-03T00:23:12.113Z,16.38
2022-09-03T00:24:14.233Z,16.34
2022-09-03T00:25:12.093Z,16.25
2022-09-03T00:26:12.084Z,16.12
2022-09-03T00:27:12.093Z,16.14
2022-09-03T00:28:12.080Z,16.11
2022-09-03T00:29:12.089Z,16.04
2022-09-03T00:30:14.616Z,16.06
2022-09-03T00:31:13.082Z,15.96
2022-09-03T00:32:12.069Z,16.00
2022-09-03T00:33:12.040Z,15.86
2022-09-03T00:34:12.032Z,15.85
2022-09-03T00:35:12.038Z,15.78
2022-09-03T00:36:12.049Z,15.76
2022-09-03T00:37:14.485Z,15.70
2022-09-03T00:38:12.015Z,15.63
2022-09-03T00:39:11.998Z,15.64
2022-09-03T00:40:11.989Z,15.54
2022-09-03T00:41:11.980Z,15.54
2022-09-03T00:42:11.988Z,15.51
2022-09-03T00:43:11.973Z,15.48
2022-09-03T00:44:12.889Z,15.54
2022-09-03T00:45:11.952Z,15.52
2022-09-03T00:46:12.072Z,15.51
2022-09-03T00:47:11.950Z,15.52
2022-09-03T00:48:11.921Z,15.39
2022-09-03T00:49:11.921Z,15.46
2022-09-03T00:50:11.916Z,15.39
2022-09-03T00:51:11.901Z,15.38
2022-09-03T00:52:11.892Z,15.28
2022-09-03T00:53:11.922Z,15.20
2022-09-03T00:54:11.877Z,15.06
2022-09-03T00:55:11.878Z,15.03
2022-09-03T00:56:11.886Z,14.93
2022-09-03T00:57:11.864Z,14.91
2022-09-03T00:58:11.889Z,14.91
2022-09-03T00:59:11.852Z,14.95
2022-09-03T01:00:11.836Z,14.83
2022-09-03T01:01:11.884Z,14.84
2022-09-03T01:02:11.929Z,14.68
2022-09-03T01:03:11.829Z,14.67
2022-09-03T01:04:11.828Z,14.74
2022-09-03T01:05:11.817Z,14.57
2022-09-03T01:06:11.809Z,14.50
2022-09-03T01:07:11.804Z,14.47
2022-09-03T01:08:11.848Z,14.49
2022-09-03T01:09:11.832Z,14.52
2022-09-03T01:10:11.788Z,14.53
2022-09-03T01:11:11.778Z,14.38
2022-09-03T01:12:11.767Z,14.34
2022-09-03T01:13:11.796Z,14.29
2022-09-03T01:14:11.763Z,14.29
2022-09-03T01:15:11.747Z,14.24
2022-09-03T01:16:11.870Z,14.35
2022-09-03T01:17:11.733Z,14.34
2022-09-03T01:18:11.747Z,14.25
2022-09-03T01:19:11.726Z,14.19
2022-09-03T01:20:11.716Z,14.31
2022-09-03T01:21:11.709Z,14.21
2022-09-03T01:22:11.699Z,14.19
2022-09-03T01:23:11.703Z,14.20
2022-09-03T01:24:11.703Z,14.16
2022-09-03T01:25:11.685Z,14.21
2022-09-03T01:26:11.683Z,14.19
2022-09-03T01:27:11.667Z,14.17
2022-09-03T01:28:11.652Z,14.27
2022-09-03T01:29:11.678Z,14.20
2022-09-03T01:30:11.660Z,14.19
2022-09-03T01:31:11.695Z,14.16
2022-09-03T01:32:11.647Z,14.19
2022-09-03T01:33:11.656Z,14.16
2022-09-03T01:34:11.627Z,14.21
2022-09-03T01:35:11.641Z,14.10
2022-09-03T01:36:11.667Z,14.17
2022-09-03T01:37:11.611Z,14.04
2022-09-03T01:38:11.607Z,14.06
2022-09-03T01:39:11.598Z,14.01
2022-09-03T01:40:11.606Z,13.94
2022-09-03T01:41:11.582Z,13.99
2022-09-03T01:42:11.582Z,13.94
2022-09-03T01:43:11.573Z,13.98
2022-09-03T01:44:11.570Z,13.92
2022-09-03T01:45:11.559Z,14.06
2022-09-03T01:46:11.583Z,13.99
2022-09-03T01:47:13.194Z,13.99
2022-09-03T01:48:11.547Z,14.01
2022-09-03T01:49:11.530Z,13.99
2022-09-03T01:50:11.555Z,13.88
2022-09-03T01:51:11.537Z,13.94
2022-09-03T01:52:11.521Z,13.95
2022-09-03T01:53:11.513Z,13.92
2022-09-03T01:54:18.119Z,13.79
2022-09-03T01:55:12.483Z,13.83
2022-09-03T01:56:12.506Z,13.84
2022-09-03T01:57:17.229Z,13.81
2022-09-03T01:58:12.475Z,13.77
2022-09-03T01:59:11.462Z,13.73
2022-09-03T02:00:11.465Z,13.74
2022-09-03T02:01:11.507Z,13.79
2022-09-03T02:02:11.551Z,13.67
2022-09-03T02:03:11.442Z,13.69
2022-09-03T02:04:11.427Z,13.73
2022-09-03T02:05:11.438Z,13.79
2022-09-03T02:06:11.423Z,13.65
2022-09-03T02:07:11.443Z,13.69
2022-09-03T02:08:11.754Z,13.69
2022-09-03T02:09:11.394Z,13.63
2022-09-03T02:10:11.399Z,13.71
2022-09-03T02:11:11.386Z,13.74
2022-09-03T02:12:11.379Z,13.71
2022-09-03T02:13:11.395Z,13.77
2022-09-03T02:14:11.374Z,13.76
2022-09-03T02:15:11.367Z,13.73
2022-09-03T02:16:11.389Z,13.63
2022-09-03T02:17:11.355Z,13.80
2022-09-03T02:18:11.366Z,13.67
2022-09-03T02:19:11.344Z,13.62
2022-09-03T02:20:11.339Z,13.67
2022-09-03T02:21:11.331Z,13.55
2022-09-03T02:22:11.322Z,13.62
2022-09-03T02:23:11.321Z,13.65
2022-09-03T02:24:11.318Z,13.62
2022-09-03T02:25:11.295Z,13.62
2022-09-03T02:26:11.287Z,13.62
2022-09-03T02:27:11.290Z,13.67
2022-09-03T02:28:17.052Z,13.62
2022-09-03T02:29:12.299Z,13.59
2022-09-03T02:30:11.275Z,13.62
2022-09-03T02:31:11.326Z,13.65
2022-09-03T02:32:11.262Z,13.56
2022-09-03T02:33:11.248Z,13.54
2022-09-03T02:34:11.284Z,13.56
2022-09-03T02:35:11.225Z,13.62
2022-09-03T02:36:11.235Z,13.55
2022-09-03T02:37:11.222Z,13.47
2022-09-03T02:38:11.213Z,13.51
2022-09-03T02:39:11.227Z,13.55
2022-09-03T02:40:11.278Z,13.46
2022-09-03T02:41:11.199Z,13.58
2022-09-03T02:42:11.194Z,13.51
2022-09-03T02:43:11.198Z,13.56
2022-09-03T02:44:11.189Z,13.55
2022-09-03T02:45:11.191Z,13.41
2022-09-03T02:46:11.182Z,13.41
2022-09-03T02:47:11.160Z,13.33
2022-09-03T02:48:11.167Z,13.49
2022-09-03T02:49:11.142Z,13.30
2022-09-03T02:50:11.147Z,13.33
2022-09-03T02:51:14.364Z,13.40
2022-09-03T02:52:11.124Z,13.32
2022-09-03T02:53:11.119Z,13.40
2022-09-03T02:54:11.115Z,13.32
2022-09-03T02:55:11.123Z,13.24
2022-09-03T02:56:11.095Z,13.20
2022-09-03T02:57:12.094Z,13.18
2022-09-03T02:58:11.094Z,13.04
2022-09-03T02:59:11.082Z,13.09
2022-09-03T03:00:11.110Z,12.96
2022-09-03T03:01:11.122Z,12.82
2022-09-03T03:02:12.104Z,12.77
2022-09-03T03:03:11.068Z,12.63
2022-09-03T03:04:11.054Z,12.59
2022-09-03T03:05:11.045Z,12.62
2022-09-03T03:06:11.058Z,12.45
2022-09-03T03:07:11.034Z,12.39
2022-09-03T03:08:11.043Z,12.37
2022-09-03T03:09:11.022Z,12.27
2022-09-03T03:10:11.013Z,12.33
2022-09-03T03:11:11.019Z,12.31
2022-09-03T03:12:10.998Z,12.24
2022-09-03T03:13:10.995Z,12.24
2022-09-03T03:14:10.978Z,12.06
2022-09-03T03:15:11.064Z,12.23
2022-09-03T03:16:11.121Z,12.24
2022-09-03T03:17:10.970Z,12.16
2022-09-03T03:18:10.970Z,12.20
2022-09-03T03:19:10.950Z,12.21
2022-09-03T03:20:11.958Z,12.13
2022-09-03T03:21:10.967Z,12.13
2022-09-03T03:22:10.946Z,12.21
2022-09-03T03:23:10.946Z,12.20
2022-09-03T03:24:10.944Z,12.16
2022-09-03T03:25:10.930Z,12.24
2022-09-03T03:26:10.911Z,12.23
2022-09-03T03:27:10.914Z,12.26
2022-09-03T03:28:10.910Z,12.24
2022-09-03T03:29:10.915Z,12.21
2022-09-03T03:30:10.901Z,12.15
2022-09-03T03:31:10.937Z,12.24
2022-09-03T03:32:10.870Z,12.21
2022-09-03T03:33:10.870Z,12.24
2022-09-03T03:34:10.877Z,12.15
2022-09-03T03:35:10.857Z,12.20
2022-09-03T03:36:10.859Z,12.08
2022-09-03T03:37:10.846Z,12.16
2022-09-03T03:38:10.843Z,12.21
2022-09-03T03:39:11.385Z,12.09
2022-09-03T03:40:10.828Z,12.13
2022-09-03T03:41:10.818Z,12.15
2022-09-03T03:42:10.827Z,12.20
2022-09-03T03:43:10.803Z,12.09
2022-09-03T03:44:10.806Z,12.19
2022-09-03T03:45:10.795Z,11.99
2022-09-03T03:46:10.899Z,12.05
2022-09-03T03:47:10.783Z,12.06
2022-09-03T03:48:10.782Z,12.16
2022-09-03T03:49:10.766Z,12.12
2022-09-03T03:50:10.758Z,12.20
2022-09-03T03:51:10.745Z,12.16
2022-09-03T03:52:10.746Z,12.16
2022-09-03T03:53:10.742Z,12.13
2022-09-03T03:54:10.745Z,12.20
2022-09-03T03:55:10.729Z,12.21
2022-09-03T03:56:10.721Z,12.21
2022-09-03T03:57:10.709Z,12.13
2022-09-03T03:58:10.717Z,12.13
2022-09-03T03:59:10.722Z,12.19
2022-09-03T04:00:10.693Z,12.26
2022-09-03T04:01:10.747Z,12.23
2022-09-03T04:02:10.719Z,12.27
2022-09-03T04:03:10.677Z,12.15
2022-09-03T04:04:10.685Z,12.24
2022-09-03T04:05:10.669Z,12.16
2022-09-03T04:06:10.658Z,12.20
2022-09-03T04:07:10.649Z,12.26
2022-09-03T04:08:10.647Z,12.23
2022-09-03T04:09:10.649Z,12.30
2022-09-03T04:10:10.634Z,12.13
2022-09-03T04:11:10.634Z,12.16
2022-09-03T04:12:10.617Z,12.12
2022-09-03T04:13:10.620Z,12.11
2022-09-03T04:14:10.607Z,12.02
2022-09-03T04:15:10.620Z,12.01
2022-09-03T04:16:10.638Z,12.04
2022-09-03T04:17:10.593Z,12.02
2022-09-03T04:18:10.585Z,12.08
2022-09-03T04:19:10.580Z,12.06
2022-09-03T04:20:10.583Z,12.05
2022-09-03T04:21:10.569Z,12.05
2022-09-03T04:22:10.565Z,11.97
2022-09-03T04:23:10.561Z,11.94
2022-09-03T04:24:10.540Z,12.02
2022-09-03T04:25:10.557Z,11.96
2022-09-03T04:26:10.533Z,12.04
2022-09-03T04:27:10.521Z,11.97
2022-09-03T04:28:10.533Z,12.05
2022-09-03T04:29:10.521Z,12.04
2022-09-03T04:30:10.513Z,11.93
2022-09-03T04:31:10.582Z,11.97
2022-09-03T04:32:10.517Z,12.02
2022-09-03T04:33:15.944Z,11.97
2022-09-03T04:34:11.489Z,12.05
2022-09-03T04:35:10.476Z,11.96
2022-09-03T04:36:10.457Z,11.97
2022-09-03T04:37:11.481Z,11.87
2022-09-03T04:38:10.461Z,11.97
2022-09-03T04:39:10.449Z,11.94
2022-09-03T04:40:10.444Z,11.93
2022-09-03T04:41:10.449Z,11.96
2022-09-03T04:42:10.448Z,11.93
2022-09-03T04:43:10.432Z,11.86
2022-09-03T04:44:10.417Z,11.85
2022-09-03T04:45:10.409Z,11.85
2022-09-03T04:46:14.508Z,11.86
2022-09-03T04:47:12.420Z,11.89
2022-09-03T04:48:10.401Z,11.72
2022-09-03T04:49:10.389Z,11.64
2022-09-03T04:50:10.381Z,11.72
2022-09-03T04:51:10.369Z,11.72
2022-09-03T04:52:10.385Z,11.80
2022-09-03T04:53:10.361Z,11.72
2022-09-03T04:54:10.355Z,11.74
2022-09-03T04:55:10.354Z,11.72
2022-09-03T04:56:10.349Z,11.80
2022-09-03T04:57:10.352Z,11.67
2022-09-03T04:58:10.336Z,11.68
2022-09-03T04:59:10.337Z,11.67
2022-09-03T05:00:10.365Z,11.67
2022-09-03T05:01:10.393Z,11.62
2022-09-03T05:02:10.389Z,11.65
2022-09-03T05:03:10.355Z,11.57
2022-09-03T05:04:10.298Z,11.59
2022-09-03T05:05:10.292Z,11.46
2022-09-03T05:06:10.285Z,11.56
2022-09-03T05:07:10.272Z,11.46
2022-09-03T05:08:11.276Z,11.59
2022-09-03T05:09:10.281Z,11.44
2022-09-03T05:10:10.270Z,11.50
2022-09-03T05:11:10.264Z,11.47
2022-09-03T05:12:10.281Z,11.56
2022-09-03T05:13:10.248Z,11.61
2022-09-03T05:14:10.241Z,11.49
2022-09-03T05:15:10.240Z,11.65
2022-09-03T05:16:10.256Z,11.64
2022-09-03T05:17:10.240Z,11.68
2022-09-03T05:18:10.217Z,11.64
2022-09-03T05:19:10.216Z,11.65
2022-09-03T05:20:10.208Z,11.75
2022-09-03T05:21:10.205Z,11.80
2022-09-03T05:22:10.188Z,11.83
2022-09-03T05:23:10.195Z,11.77
2022-09-03T05:24:10.205Z,11.93
2022-09-03T05:25:10.190Z,11.94
2022-09-03T05:26:11.041Z,12.02
2022-09-03T05:27:10.156Z,12.02
2022-09-03T05:28:10.152Z,12.08
2022-09-03T05:29:10.211Z,12.21
2022-09-03T05:30:10.144Z,12.11
2022-09-03T05:31:10.309Z,12.06
2022-09-03T05:32:10.128Z,12.08
2022-09-03T05:33:10.128Z,12.12
2022-09-03T05:34:10.205Z,12.19
2022-09-03T05:35:11.119Z,12.19
2022-09-03T05:36:10.118Z,12.16
2022-09-03T05:37:10.094Z,12.13
2022-09-03T05:38:10.080Z,12.19
2022-09-03T05:39:11.080Z,12.21
2022-09-03T05:40:10.073Z,12.26
2022-09-03T05:41:10.088Z,12.27
2022-09-03T05:42:10.064Z,12.29
2022-09-03T05:43:10.084Z,12.27
2022-09-03T05:44:10.059Z,12.34
2022-09-03T05:45:10.045Z,12.41
2022-09-03T05:46:10.149Z,12.48
2022-09-03T05:47:11.048Z,12.42
2022-09-03T05:48:10.032Z,12.49
2022-09-03T05:49:10.011Z,12.56
2022-09-03T05:50:10.048Z,12.60
2022-09-03T05:51:10.033Z,12.59
2022-09-03T05:52:10.053Z,12.64
2022-09-03T05:53:10.026Z,12.70
2022-09-03T05:54:10.042Z,12.78
2022-09-03T05:55:13.273Z,12.74
2022-09-03T05:56:10.990Z,12.78
2022-09-03T05:57:09.968Z,12.78
2022-09-03T05:58:09.964Z,12.84
2022-09-03T05:59:09.978Z,12.93
2022-09-03T06:00:09.952Z,12.82
2022-09-03T06:01:09.948Z,12.97
2022-09-03T06:02:10.031Z,12.96
2022-09-03T06:03:11.033Z,13.07
2022-09-03T06:04:09.931Z,13.11
2022-09-03T06:05:09.924Z,13.11
2022-09-03T06:06:09.920Z,13.21
2022-09-03T06:07:09.916Z,13.30
2022-09-03T06:08:09.899Z,13.33
2022-09-03T06:09:09.901Z,13.40
2022-09-03T06:10:09.884Z,13.33
2022-09-03T06:11:09.880Z,13.51
2022-09-03T06:12:09.895Z,13.51
2022-09-03T06:13:09.871Z,13.59
2022-09-03T06:14:09.865Z,13.58
2022-09-03T06:15:09.863Z,13.55
2022-09-03T06:16:09.875Z,13.70
2022-09-03T06:17:09.867Z,14.04
2022-09-03T06:18:09.836Z,14.49
2022-09-03T06:19:09.877Z,14.90
2022-09-03T06:20:09.821Z,15.33
2022-09-03T06:21:09.816Z,15.79
2022-09-03T06:22:09.816Z,16.26
2022-09-03T06:23:09.814Z,16.71
2022-09-03T06:24:09.800Z,17.18
2022-09-03T06:25:09.788Z,17.67
2022-09-03T06:26:09.785Z,17.91
2022-09-03T06:27:09.796Z,18.46
2022-09-03T06:28:09.764Z,18.74
2022-09-03T06:29:09.760Z,18.94
2022-09-03T06:30:09.759Z,19.40
2022-09-03T06:31:09.828Z,19.86
2022-09-03T06:32:09.771Z,20.08
2022-09-03T06:33:09.727Z,20.27
2022-09-03T06:34:09.720Z,20.59
2022-09-03T06:35:09.715Z,20.91
2022-09-03T06:36:09.714Z,21.14
2022-09-03T06:37:09.707Z,21.42
2022-09-03T06:38:09.696Z,21.72
2022-09-03T06:39:09.687Z,21.94
2022-09-03T06:40:09.684Z,22.06
2022-09-03T06:41:09.675Z,22.12
2022-09-03T06:42:09.668Z,22.28
2022-09-03T06:43:09.669Z,22.34
2022-09-03T06:44:09.651Z,22.32
2022-09-03T06:45:10.752Z,22.52
2022-09-03T06:46:09.687Z,22.50
2022-09-03T06:47:09.637Z,22.39
2022-09-03T06:48:09.637Z,22.65
2022-09-03T06:49:09.636Z,22.86
2022-09-03T06:50:09.623Z,23.22
2022-09-03T06:51:09.611Z,23.49
2022-09-03T06:52:09.608Z,23.61
2022-09-03T06:53:09.607Z,23.83
2022-09-03T06:54:09.593Z,24.01
2022-09-03T06:55:09.575Z,24.35
2022-09-03T06:56:09.579Z,24.56
2022-09-03T06:57:09.577Z,24.35
2022-09-03T06:58:09.564Z,24.49
2022-09-03T06:59:09.553Z,24.27
2022-09-03T07:00:09.551Z,24.64
2022-09-03T07:01:09.678Z,25.01
2022-09-03T07:02:09.759Z,25.27
2022-09-03T07:03:09.536Z,25.54
2022-09-03T07:04:09.535Z,25.77
2022-09-03T07:05:09.520Z,26.08
2022-09-03T07:06:09.508Z,26.37
2022-09-03T07:07:09.507Z,26.59
2022-09-03T07:08:09.499Z,26.81
2022-09-03T07:09:09.503Z,27.02
2022-09-03T07:10:09.492Z,26.83
2022-09-03T07:11:09.486Z,26.50
2022-09-03T07:12:09.467Z,26.40
2022-09-03T07:13:09.468Z,26.37
2022-09-03T07:14:09.447Z,26.49
2022-09-03T07:15:09.459Z,26.59
2022-09-03T07:16:09.470Z,26.87
2022-09-03T07:17:09.431Z,26.98
2022-09-03T07:18:09.435Z,27.19
2022-09-03T07:19:09.443Z,27.28
2022-09-03T07:20:09.424Z,27.50
2022-09-03T07:21:09.415Z,27.84
2022-09-03T07:22:09.407Z,28.29
2022-09-03T07:23:09.401Z,28.73
2022-09-03T07:24:09.403Z,29.10
2022-09-03T07:25:09.396Z,29.41
2022-09-03T07:26:09.387Z,29.59
2022-09-03T07:27:14.311Z,29.71
2022-09-03T07:28:11.367Z,29.92
2022-09-03T07:29:09.359Z,30.08
2022-09-03T07:30:09.358Z,30.15
2022-09-03T07:31:09.356Z,29.66
2022-09-03T07:32:09.397Z,28.80
2022-09-03T07:33:10.326Z,28.10
2022-09-03T07:34:10.314Z,27.53
2022-09-03T07:35:09.328Z,26.79
2022-09-03T07:36:09.320Z,26.12
2022-09-03T07:37:09.327Z,26.18
2022-09-03T07:38:09.304Z,26.95
2022-09-03T07:39:09.311Z,27.77
2022-09-03T07:40:09.296Z,28.13
2022-09-03T07:41:09.275Z,28.07
2022-09-03T07:42:09.290Z,27.41
2022-09-03T07:43:09.275Z,27.05
2022-09-03T07:44:09.253Z,27.77
2022-09-03T07:45:09.265Z,28.46
2022-09-03T07:46:09.254Z,28.78
2022-09-03T07:47:09.235Z,28.90
2022-09-03T07:48:09.236Z,28.82
2022-09-03T07:49:09.235Z,28.43
2022-09-03T07:50:09.227Z,28.22
2022-09-03T07:51:09.224Z,27.61
2022-09-03T07:52:11.964Z,28.09
2022-09-03T07:53:09.205Z,28.13
2022-09-03T07:54:09.195Z,27.92
2022-09-03T07:55:09.231Z,27.46
2022-09-03T07:56:09.192Z,27.20
2022-09-03T07:57:09.173Z,26.80
2022-09-03T07:58:09.175Z,26.12
2022-09-03T07:59:09.173Z,26.12
2022-09-03T08:00:09.179Z,26.24
2022-09-03T08:01:11.293Z,26.69
2022-09-03T08:02:09.228Z,27.47
2022-09-03T08:03:09.148Z,27.84
2022-09-03T08:04:09.720Z,28.23
2022-09-03T08:05:09.131Z,28.35
2022-09-03T08:06:09.145Z,28.22
2022-09-03T08:07:09.119Z,27.88
2022-09-03T08:08:09.116Z,27.71
2022-09-03T08:09:09.096Z,27.14
2022-09-03T08:10:09.103Z,26.98
2022-09-03T08:11:09.107Z,27.01
2022-09-03T08:12:09.087Z,27.02
2022-09-03T08:13:09.077Z,27.14
2022-09-03T08:14:09.077Z,26.96
2022-09-03T08:15:09.059Z,26.83
2022-09-03T08:16:09.112Z,26.77
2022-09-03T08:17:09.067Z,27.13
2022-09-03T08:18:09.039Z,27.39
2022-09-03T08:19:09.040Z,27.04
2022-09-03T08:20:09.041Z,27.01
2022-09-03T08:21:09.041Z,27.17
2022-09-03T08:22:09.042Z,27.76
2022-09-03T08:23:09.015Z,27.70
2022-09-03T08:24:09.002Z,27.76
2022-09-03T08:25:09.014Z,27.66
2022-09-03T08:26:09.007Z,28.41
2022-09-03T08:27:09.007Z,28.44
2022-09-03T08:28:08.999Z,28.36
2022-09-03T08:29:08.995Z,28.63
2022-09-03T08:30:08.974Z,28.73
2022-09-03T08:31:09.008Z,28.43
2022-09-03T08:32:08.971Z,27.99
2022-09-03T08:33:08.955Z,27.95
2022-09-03T08:34:08.970Z,27.98
2022-09-03T08:35:08.947Z,27.09
2022-09-03T08:36:08.941Z,26.58
2022-09-03T08:37:08.942Z,25.99
2022-09-03T08:38:10.080Z,26.77
2022-09-03T08:39:08.922Z,27.80
2022-09-03T08:40:08.914Z,28.53
2022-09-03T08:41:08.915Z,29.53
2022-09-03T08:42:08.902Z,29.41
2022-09-03T08:43:08.900Z,28.46
2022-09-03T08:44:08.915Z,28.09
2022-09-03T08:45:08.883Z,28.91
2022-09-03T08:46:08.964Z,29.47
2022-09-03T08:47:08.871Z,29.87
2022-09-03T08:48:08.863Z,29.79
2022-09-03T08:49:08.882Z,29.90
2022-09-03T08:50:08.850Z,29.79
2022-09-03T08:51:08.839Z,29.77
2022-09-03T08:52:08.840Z,29.55
2022-09-03T08:53:08.825Z,29.35
2022-09-03T08:54:08.835Z,29.16
2022-09-03T08:55:08.818Z,28.73
2022-09-03T08:56:08.812Z,28.84
2022-09-03T08:57:08.805Z,29.22
2022-09-03T08:58:08.795Z,29.26
2022-09-03T08:59:08.793Z,29.25
2022-09-03T09:00:08.799Z,29.56
2022-09-03T09:01:08.776Z,30.07
2022-09-03T09:02:08.910Z,30.34
2022-09-03T09:03:08.762Z,29.72
2022-09-03T09:04:08.763Z,29.49
2022-09-03T09:05:11.103Z,28.96
2022-09-03T09:06:10.747Z,29.03
2022-09-03T09:07:08.746Z,28.77
2022-09-03T09:08:08.743Z,28.75
2022-09-03T09:09:08.756Z,28.84
2022-09-03T09:10:08.734Z,29.33
2022-09-03T09:11:08.723Z,29.22
2022-09-03T09:12:08.715Z,28.81
2022-09-03T09:13:08.706Z,28.63
2022-09-03T09:14:08.704Z,28.72
2022-09-03T09:15:08.696Z,29.11
2022-09-03T09:16:08.752Z,29.53
2022-09-03T09:17:08.686Z,29.41
2022-09-03T09:18:08.681Z,29.10
2022-09-03T09:19:08.669Z,29.01
2022-09-03T09:20:08.664Z,29.31
2022-09-03T09:21:08.674Z,29.55
2022-09-03T09:22:09.658Z,29.38
2022-09-03T09:23:09.316Z,29.56
2022-09-03T09:24:08.639Z,29.55
2022-09-03T09:25:08.657Z,29.38
2022-09-03T09:26:08.647Z,29.07
2022-09-03T09:27:10.814Z,28.62
2022-09-03T09:28:09.620Z,28.58
2022-09-03T09:29:09.448Z,29.08
2022-09-03T09:30:08.608Z,29.31
2022-09-03T09:31:08.632Z,29.37
2022-09-03T09:32:08.618Z,29.74
2022-09-03T09:33:08.604Z,29.89
2022-09-03T09:34:08.601Z,30.21
2022-09-03T09:35:08.573Z,30.34
2022-09-03T09:36:08.576Z,30.81
2022-09-03T09:37:08.563Z,31.73
2022-09-03T09:38:08.552Z,32.15
2022-09-03T09:39:08.556Z,32.40
2022-09-03T09:40:08.544Z,32.18
2022-09-03T09:41:08.548Z,32.07
2022-09-03T09:42:08.544Z,32.49
2022-09-03T09:43:08.536Z,32.69
2022-09-03T09:44:08.529Z,32.48
2022-09-03T09:45:08.524Z,32.13
2022-09-03T09:46:08.550Z,31.39
2022-09-03T09:47:08.517Z,30.59
2022-09-03T09:48:08.504Z,30.05
2022-09-03T09:49:08.488Z,29.41
2022-09-03T09:50:08.484Z,29.26
2022-09-03T09:51:09.472Z,28.82
2022-09-03T09:52:08.487Z,29.08
2022-09-03T09:53:08.475Z,28.90
2022-09-03T09:54:08.472Z,28.70
2022-09-03T09:55:08.459Z,28.22
2022-09-03T09:56:08.443Z,27.70
2022-09-03T09:57:08.447Z,27.20
2022-09-03T09:58:13.474Z,27.13
2022-09-03T09:59:10.470Z,26.69
2022-09-03T10:00:08.442Z,26.27
2022-09-03T10:01:08.472Z,25.74
2022-09-03T10:02:08.418Z,25.30
2022-09-03T10:03:08.579Z,25.12
2022-09-03T10:04:08.417Z,25.07
2022-09-03T10:05:08.405Z,25.10
2022-09-03T10:06:08.402Z,25.35
2022-09-03T10:07:08.386Z,25.54
2022-09-03T10:08:08.378Z,25.83
2022-09-03T10:09:08.393Z,26.50
2022-09-03T10:10:08.381Z,26.98
2022-09-03T10:11:08.357Z,26.91
2022-09-03T10:12:08.353Z,27.04
2022-09-03T10:13:08.353Z,26.74
2022-09-03T10:14:08.361Z,26.92
2022-09-03T10:15:08.338Z,27.23
2022-09-03T10:16:08.402Z,26.84
2022-09-03T10:17:08.325Z,26.52
2022-09-03T10:18:08.316Z,26.58
2022-09-03T10:19:08.310Z,26.99
2022-09-03T10:20:08.309Z,27.51
2022-09-03T10:21:08.310Z,28.31
2022-09-03T10:22:08.300Z,29.10
2022-09-03T10:23:08.286Z,29.63
2022-09-03T10:24:08.277Z,29.78
2022-09-03T10:25:08.289Z,29.44
2022-09-03T10:26:08.268Z,29.55
2022-09-03T10:27:08.265Z,29.38
2022-09-03T10:28:08.329Z,29.44
2022-09-03T10:29:08.249Z,29.60
2022-09-03T10:30:08.325Z,29.11
2022-09-03T10:31:08.332Z,28.66
2022-09-03T10:32:08.234Z,28.47
2022-09-03T10:33:08.226Z,28.96
2022-09-03T10:34:08.222Z,29.08
2022-09-03T10:35:08.214Z,29.59
2022-09-03T10:36:08.237Z,29.68
2022-09-03T10:37:08.485Z,29.68
2022-09-03T10:38:08.198Z,30.34
2022-09-03T10:39:08.194Z,30.24
2022-09-03T10:40:08.311Z,30.61
2022-09-03T10:41:08.187Z,30.21
2022-09-03T10:42:08.178Z,29.84
2022-09-03T10:43:08.169Z,29.86
2022-09-03T10:44:08.157Z,29.81
2022-09-03T10:45:08.153Z,28.93
2022-09-03T10:46:08.209Z,28.62
2022-09-03T10:47:08.149Z,28.40
2022-09-03T10:48:08.293Z,27.38
2022-09-03T10:49:08.137Z,26.89
2022-09-03T10:50:08.133Z,26.98
2022-09-03T10:51:08.117Z,27.17
2022-09-03T10:52:08.123Z,27.11
2022-09-03T10:53:08.097Z,27.19
2022-09-03T10:54:08.114Z,27.38
2022-09-03T10:55:08.097Z,28.25
2022-09-03T10:56:08.119Z,28.23
2022-09-03T10:57:08.102Z,28.43
2022-09-03T10:58:08.081Z,28.47
2022-09-03T10:59:08.083Z,27.59
2022-09-03T11:00:08.066Z,27.66
2022-09-03T11:01:08.072Z,27.43
2022-09-03T11:02:08.042Z,27.20
2022-09-03T11:03:09.058Z,27.35
2022-09-03T11:04:08.073Z,28.11
2022-09-03T11:05:08.041Z,28.80
2022-09-03T11:06:08.037Z,29.78
2022-09-03T11:07:08.033Z,29.60
2022-09-03T11:08:08.061Z,29.59
2022-09-03T11:09:08.014Z,30.23
2022-09-03T11:10:08.016Z,30.07
2022-09-03T11:11:07.990Z,29.70
2022-09-03T11:12:07.996Z,29.29
2022-09-03T11:13:07.991Z,29.55
2022-09-03T11:14:07.996Z,30.23
2022-09-03T11:15:07.983Z,30.69
2022-09-03T11:16:08.027Z,30.99
2022-09-03T11:17:07.974Z,30.99
2022-09-03T11:18:07.958Z,31.09
2022-09-03T11:19:07.967Z,30.69
2022-09-03T11:20:07.939Z,30.75
2022-09-03T11:21:12.067Z,30.96
2022-09-03T11:22:08.945Z,30.87
2022-09-03T11:23:07.931Z,30.68
2022-09-03T11:24:07.936Z,31.06
2022-09-03T11:25:07.929Z,31.60
2022-09-03T11:26:07.911Z,31.55
2022-09-03T11:27:07.902Z,30.54
2022-09-03T11:28:07.901Z,30.12
2022-09-03T11:29:07.914Z,28.93
2022-09-03T11:30:07.890Z,28.36
2022-09-03T11:31:07.918Z,27.77
2022-09-03T11:32:07.884Z,27.21
2022-09-03T11:33:07.881Z,27.28
2022-09-03T11:34:08.338Z,27.35
2022-09-03T11:35:08.891Z,27.46
2022-09-03T11:36:07.857Z,27.39
2022-09-03T11:37:07.861Z,27.80
2022-09-03T11:38:07.846Z,27.96
2022-09-03T11:39:07.842Z,27.98
2022-09-03T11:40:07.853Z,28.17
2022-09-03T11:41:07.831Z,28.22
2022-09-03T11:42:07.851Z,28.21
2022-09-03T11:43:07.844Z,28.21
2022-09-03T11:44:07.806Z,28.21
2022-09-03T11:45:07.819Z,28.50
2022-09-03T11:46:07.864Z,28.78
2022-09-03T11:47:07.794Z,28.97
2022-09-03T11:48:07.790Z,29.01
2022-09-03T11:49:07.782Z,29.20
2022-09-03T11:50:07.782Z,29.62
2022-09-03T11:51:07.782Z,29.68
2022-09-03T11:52:07.769Z,29.31
2022-09-03T11:53:07.762Z,28.82
2022-09-03T11:54:07.749Z,28.93
2022-09-03T11:55:07.746Z,28.82
2022-09-03T11:56:07.754Z,29.01
2022-09-03T11:57:07.734Z,29.18
2022-09-03T11:58:07.734Z,28.91
2022-09-03T11:59:07.725Z,28.97
2022-09-03T12:00:07.722Z,29.10
2022-09-03T12:01:07.726Z,29.56
2022-09-03T12:02:07.765Z,30.45
2022-09-03T12:03:07.697Z,30.45
2022-09-03T12:04:07.698Z,30.33
2022-09-03T12:05:07.683Z,30.50
2022-09-03T12:06:07.691Z,30.37
2022-09-03T12:07:07.669Z,29.78
2022-09-03T12:08:09.053Z,28.93
2022-09-03T12:09:08.668Z,27.74
2022-09-03T12:10:07.665Z,27.05
2022-09-03T12:11:07.724Z,26.79
2022-09-03T12:12:07.688Z,26.54
2022-09-03T12:13:07.644Z,26.44
2022-09-03T12:14:11.683Z,26.17
2022-09-03T12:15:10.582Z,26.01
2022-09-03T12:16:07.679Z,25.72
2022-09-03T12:17:07.604Z,25.79
2022-09-03T12:18:07.609Z,25.86
2022-09-03T12:19:07.596Z,26.06
2022-09-03T12:20:08.618Z,26.17
2022-09-03T12:21:07.596Z,26.24
2022-09-03T12:22:07.583Z,26.35
2022-09-03T12:23:07.580Z,26.22
2022-09-03T12:24:07.573Z,26.28
2022-09-03T12:25:07.604Z,26.12
2022-09-03T12:26:07.547Z,25.87
2022-09-03T12:27:07.563Z,25.68
2022-09-03T12:28:07.540Z,25.69
2022-09-03T12:29:09.431Z,25.52
2022-09-03T12:30:07.528Z,25.44
2022-09-03T12:31:07.560Z,25.28
2022-09-03T12:32:07.698Z,25.31
2022-09-03T12:33:07.508Z,25.35
2022-09-03T12:34:07.504Z,25.52
2022-09-03T12:35:07.572Z,25.52
2022-09-03T12:36:07.504Z,25.54
2022-09-03T12:37:07.492Z,25.59
2022-09-03T12:38:09.337Z,25.59
2022-09-03T12:39:12.029Z,25.57
2022-09-03T12:40:09.129Z,25.38
2022-09-03T12:41:23.352Z,25.50
2022-09-03T12:42:09.456Z,25.59
2022-09-03T12:44:09.448Z,25.52
2022-09-03T12:45:07.444Z,25.53
2022-09-03T12:46:10.993Z,25.53
2022-09-03T12:48:09.454Z,25.42
2022-09-03T12:50:09.427Z,25.30
2022-09-03T12:52:09.384Z,25.42
2022-09-03T12:53:07.380Z,25.39
2022-09-03T12:54:07.521Z,25.32
2022-09-03T12:55:07.359Z,25.12
2022-09-03T12:56:07.359Z,24.98